sensor_id;sensor_type;location;lat;lon;timestamp;temperature;humidity
58529;DHT22;44322;52.968;5.816;2022-07-15T00:02:21;15.70;99.90
58529;DHT22;44322;52.968;5.816;2022-07-15T00:04:46;15.70;99.90
58529;DHT22;44322;52.968;5.816;2022-07-15T00:07:12;15.70;99.90
58529;DHT22;44322;52.968;5.816;2022-07-15T00:09:39;15.70;99.90
58529;DHT22;44322;52.968;5.816;2022-07-15T00:12:23;15.70;99.90
58529;DHT22;44322;52.968;5.816;2022-07-15T00:14:49;15.80;99.90
58529;DHT22;44322;52.968;5.816;2022-07-15T00:17:15;15.80;99.90
58529;DHT22;44322;52.968;5.816;2022-07-15T00:19:41;15.80;99.90
58529;DHT22;44322;52.968;5.816;2022-07-15T00:22:06;15.90;99.90
58529;DHT22;44322;52.968;5.816;2022-07-15T00:24:32;15.90;99.90
58529;DHT22;44322;52.968;5.816;2022-07-15T00:26:58;15.90;99.90
58529;DHT22;44322;52.968;5.816;2022-07-15T00:29:24;15.90;99.90
58529;DHT22;44322;52.968;5.816;2022-07-15T00:31:52;15.90;99.90
58529;DHT22;44322;52.968;5.816;2022-07-15T00:34:18;15.90;99.90
58529;DHT22;44322;52.968;5.816;2022-07-15T00:36:44;15.90;99.90
58529;DHT22;44322;52.968;5.816;2022-07-15T00:39:10;15.90;99.90
58529;DHT22;44322;52.968;5.816;2022-07-15T00:41:40;15.90;99.90
58529;DHT22;44322;52.968;5.816;2022-07-15T00:44:06;15.90;99.90
58529;DHT22;44322;52.968;5.816;2022-07-15T00:46:32;15.90;99.90
58529;DHT22;44322;52.968;5.816;2022-07-15T00:48:59;15.90;99.90
58529;DHT22;44322;52.968;5.816;2022-07-15T00:51:25;15.90;99.90
58529;DHT22;44322;52.968;5.816;2022-07-15T00:53:53;15.80;99.90
58529;DHT22;44322;52.968;5.816;2022-07-15T00:56:21;15.80;99.90
58529;DHT22;44322;52.968;5.816;2022-07-15T00:58:51;15.80;99.90
58529;DHT22;44322;52.968;5.816;2022-07-15T01:01:19;15.80;99.90
58529;DHT22;44322;52.968;5.816;2022-07-15T01:03:48;15.70;99.90
58529;DHT22;44322;52.968;5.816;2022-07-15T01:06:14;15.70;99.90
58529;DHT22;44322;52.968;5.816;2022-07-15T01:08:40;15.70;99.90
58529;DHT22;44322;52.968;5.816;2022-07-15T01:11:06;15.60;99.90
58529;DHT22;44322;52.968;5.816;2022-07-15T01:13:32;15.60;99.90
58529;DHT22;44322;52.968;5.816;2022-07-15T01:15:58;15.50;99.90
58529;DHT22;44322;52.968;5.816;2022-07-15T01:18:24;15.50;99.90
58529;DHT22;44322;52.968;5.816;2022-07-15T01:20:50;15.40;99.90
58529;DHT22;44322;52.968;5.816;2022-07-15T01:23:17;15.40;99.90
58529;DHT22;44322;52.968;5.816;2022-07-15T01:25:48;15.30;99.90
58529;DHT22;44322;52.968;5.816;2022-07-15T01:28:15;15.30;99.90
58529;DHT22;44322;52.968;5.816;2022-07-15T01:30:41;15.20;99.90
58529;DHT22;44322;52.968;5.816;2022-07-15T01:33:11;15.20;99.90
58529;DHT22;44322;52.968;5.816;2022-07-15T01:35:37;15.10;99.90
58529;DHT22;44322;52.968;5.816;2022-07-15T01:38:03;15.10;99.90
58529;DHT22;44322;52.968;5.816;2022-07-15T01:40:29;15.10;99.90
58529;DHT22;44322;52.968;5.816;2022-07-15T01:42:55;15.10;99.90
58529;DHT22;44322;52.968;5.816;2022-07-15T01:45:21;15.00;99.90
58529;DHT22;44322;52.968;5.816;2022-07-15T01:47:49;15.00;99.90
58529;DHT22;44322;52.968;5.816;2022-07-15T01:50:35;15.00;99.90
58529;DHT22;44322;52.968;5.816;2022-07-15T01:53:09;14.90;99.90
58529;DHT22;44322;52.968;5.816;2022-07-15T01:55:35;14.90;99.90
58529;DHT22;44322;52.968;5.816;2022-07-15T01:58:01;14.80;99.90
58529;DHT22;44322;52.968;5.816;2022-07-15T02:00:27;14.80;99.90
58529;DHT22;44322;52.968;5.816;2022-07-15T02:02:53;14.80;99.90
58529;DHT22;44322;52.968;5.816;2022-07-15T02:05:20;14.80;99.90
58529;DHT22;44322;52.968;5.816;2022-07-15T02:07:48;14.80;99.90
58529;DHT22;44322;52.968;5.816;2022-07-15T02:10:16;14.70;99.90
58529;DHT22;44322;52.968;5.816;2022-07-15T02:12:47;14.70;99.90
58529;DHT22;44322;52.968;5.816;2022-07-15T02:15:17;14.60;99.90
58529;DHT22;44322;52.968;5.816;2022-07-15T02:17:46;14.60;99.90
58529;DHT22;44322;52.968;5.816;2022-07-15T02:20:13;14.60;99.90
58529;DHT22;44322;52.968;5.816;2022-07-15T02:22:39;14.50;99.90
58529;DHT22;44322;52.968;5.816;2022-07-15T02:25:05;14.50;99.90
58529;DHT22;44322;52.968;5.816;2022-07-15T02:27:31;14.50;99.90
58529;DHT22;44322;52.968;5.816;2022-07-15T02:29:57;14.40;99.90
58529;DHT22;44322;52.968;5.816;2022-07-15T02:32:26;14.40;99.90
58529;DHT22;44322;52.968;5.816;2022-07-15T02:34:52;14.30;99.90
58529;DHT22;44322;52.968;5.816;2022-07-15T02:37:18;14.30;99.90
58529;DHT22;44322;52.968;5.816;2022-07-15T02:39:49;14.30;99.90
58529;DHT22;44322;52.968;5.816;2022-07-15T02:42:15;14.30;99.90
58529;DHT22;44322;52.968;5.816;2022-07-15T02:44:41;14.30;99.90
58529;DHT22;44322;52.968;5.816;2022-07-15T02:47:10;14.20;99.90
58529;DHT22;44322;52.968;5.816;2022-07-15T02:49:38;14.20;99.90
58529;DHT22;44322;52.968;5.816;2022-07-15T02:52:04;14.20;99.90
58529;DHT22;44322;52.968;5.816;2022-07-15T02:54:35;14.10;99.90
58529;DHT22;44322;52.968;5.816;2022-07-15T02:57:01;14.10;99.90
58529;DHT22;44322;52.968;5.816;2022-07-15T02:59:27;14.10;99.90
58529;DHT22;44322;52.968;5.816;2022-07-15T03:01:54;14.10;99.90
58529;DHT22;44322;52.968;5.816;2022-07-15T03:04:21;14.10;99.90
58529;DHT22;44322;52.968;5.816;2022-07-15T03:06:48;14.00;99.90
58529;DHT22;44322;52.968;5.816;2022-07-15T03:09:14;14.00;99.90
58529;DHT22;44322;52.968;5.816;2022-07-15T03:11:40;14.00;99.90
58529;DHT22;44322;52.968;5.816;2022-07-15T03:14:06;14.00;99.90
58529;DHT22;44322;52.968;5.816;2022-07-15T03:16:32;14.00;99.90
58529;DHT22;44322;52.968;5.816;2022-07-15T03:18:59;14.00;99.90
58529;DHT22;44322;52.968;5.816;2022-07-15T03:21:25;14.00;99.90
58529;DHT22;44322;52.968;5.816;2022-07-15T03:23:51;14.00;99.90
58529;DHT22;44322;52.968;5.816;2022-07-15T03:26:17;13.90;99.90
58529;DHT22;44322;52.968;5.816;2022-07-15T03:28:43;13.90;99.90
58529;DHT22;44322;52.968;5.816;2022-07-15T03:31:10;13.90;99.90
58529;DHT22;44322;52.968;5.816;2022-07-15T03:33:37;13.90;99.90
58529;DHT22;44322;52.968;5.816;2022-07-15T03:36:03;13.90;99.90
58529;DHT22;44322;52.968;5.816;2022-07-15T03:38:31;13.90;99.90
58529;DHT22;44322;52.968;5.816;2022-07-15T03:40:57;13.90;99.90
58529;DHT22;44322;52.968;5.816;2022-07-15T03:43:23;13.80;99.90
58529;DHT22;44322;52.968;5.816;2022-07-15T03:45:53;13.80;99.90
58529;DHT22;44322;52.968;5.816;2022-07-15T03:48:20;13.70;99.90
58529;DHT22;44322;52.968;5.816;2022-07-15T03:50:46;13.70;99.90
58529;DHT22;44322;52.968;5.816;2022-07-15T03:53:12;13.70;99.90
58529;DHT22;44322;52.968;5.816;2022-07-15T03:55:39;13.70;99.90
58529;DHT22;44322;52.968;5.816;2022-07-15T03:58:06;13.70;99.90
58529;DHT22;44322;52.968;5.816;2022-07-15T04:00:33;13.70;99.90
58529;DHT22;44322;52.968;5.816;2022-07-15T04:02:59;13.70;99.90
58529;DHT22;44322;52.968;5.816;2022-07-15T04:05:25;13.70;99.90
58529;DHT22;44322;52.968;5.816;2022-07-15T04:07:51;13.70;99.90
58529;DHT22;44322;52.968;5.816;2022-07-15T04:10:17;13.70;99.90
58529;DHT22;44322;52.968;5.816;2022-07-15T04:12:43;13.70;99.90
58529;DHT22;44322;52.968;5.816;2022-07-15T04:15:09;13.70;99.90
58529;DHT22;44322;52.968;5.816;2022-07-15T04:17:35;13.70;99.90
58529;DHT22;44322;52.968;5.816;2022-07-15T04:20:02;13.70;99.90
58529;DHT22;44322;52.968;5.816;2022-07-15T04:22:38;13.70;99.90
58529;DHT22;44322;52.968;5.816;2022-07-15T04:25:06;13.70;99.90
58529;DHT22;44322;52.968;5.816;2022-07-15T04:27:32;13.70;99.90
58529;DHT22;44322;52.968;5.816;2022-07-15T04:29:58;13.80;99.90
58529;DHT22;44322;52.968;5.816;2022-07-15T04:32:32;13.80;99.90
58529;DHT22;44322;52.968;5.816;2022-07-15T04:34:58;13.80;99.90
58529;DHT22;44322;52.968;5.816;2022-07-15T04:37:24;13.80;99.90
58529;DHT22;44322;52.968;5.816;2022-07-15T04:39:54;13.90;99.90
58529;DHT22;44322;52.968;5.816;2022-07-15T04:42:21;13.80;99.90
58529;DHT22;44322;52.968;5.816;2022-07-15T04:44:48;13.90;99.90
58529;DHT22;44322;52.968;5.816;2022-07-15T04:47:16;13.90;99.90
58529;DHT22;44322;52.968;5.816;2022-07-15T04:49:50;14.00;99.90
58529;DHT22;44322;52.968;5.816;2022-07-15T04:52:35;13.90;99.90
58529;DHT22;44322;52.968;5.816;2022-07-15T04:55:01;13.90;99.90
58529;DHT22;44322;52.968;5.816;2022-07-15T04:57:27;13.90;99.90
58529;DHT22;44322;52.968;5.816;2022-07-15T04:59:58;13.90;99.90
58529;DHT22;44322;52.968;5.816;2022-07-15T05:02:24;13.90;99.90
58529;DHT22;44322;52.968;5.816;2022-07-15T05:04:51;13.90;99.90
58529;DHT22;44322;52.968;5.816;2022-07-15T05:07:19;13.90;99.90
58529;DHT22;44322;52.968;5.816;2022-07-15T05:09:47;13.90;99.90
58529;DHT22;44322;52.968;5.816;2022-07-15T05:12:13;14.00;99.90
58529;DHT22;44322;52.968;5.816;2022-07-15T05:14:45;14.00;99.90
58529;DHT22;44322;52.968;5.816;2022-07-15T05:17:11;14.00;99.90
58529;DHT22;44322;52.968;5.816;2022-07-15T05:19:37;14.00;99.90
58529;DHT22;44322;52.968;5.816;2022-07-15T05:22:04;14.10;99.90
58529;DHT22;44322;52.968;5.816;2022-07-15T05:24:31;14.10;99.90
58529;DHT22;44322;52.968;5.816;2022-07-15T05:26:59;14.10;99.90
58529;DHT22;44322;52.968;5.816;2022-07-15T05:29:30;14.20;99.90
58529;DHT22;44322;52.968;5.816;2022-07-15T05:31:55;14.20;99.90
58529;DHT22;44322;52.968;5.816;2022-07-15T05:34:21;14.20;99.90
58529;DHT22;44322;52.968;5.816;2022-07-15T05:36:48;14.30;99.90
58529;DHT22;44322;52.968;5.816;2022-07-15T05:39:16;14.30;99.90
58529;DHT22;44322;52.968;5.816;2022-07-15T05:41:42;14.40;99.90
58529;DHT22;44322;52.968;5.816;2022-07-15T05:44:08;14.40;99.90
58529;DHT22;44322;52.968;5.816;2022-07-15T05:46:41;14.50;99.90
58529;DHT22;44322;52.968;5.816;2022-07-15T05:49:07;14.50;99.90
58529;DHT22;44322;52.968;5.816;2022-07-15T05:51:33;14.50;99.90
58529;DHT22;44322;52.968;5.816;2022-07-15T05:54:02;14.50;99.90
58529;DHT22;44322;52.968;5.816;2022-07-15T05:56:29;14.60;99.90
58529;DHT22;44322;52.968;5.816;2022-07-15T05:58:55;14.70;99.90
58529;DHT22;44322;52.968;5.816;2022-07-15T06:01:26;14.70;99.90
58529;DHT22;44322;52.968;5.816;2022-07-15T06:03:52;14.80;99.90
58529;DHT22;44322;52.968;5.816;2022-07-15T06:06:20;14.90;99.90
58529;DHT22;44322;52.968;5.816;2022-07-15T06:08:48;14.90;99.90
58529;DHT22;44322;52.968;5.816;2022-07-15T06:11:13;15.00;99.90
58529;DHT22;44322;52.968;5.816;2022-07-15T06:13:41;15.10;99.90
58529;DHT22;44322;52.968;5.816;2022-07-15T06:16:07;15.20;99.90
58529;DHT22;44322;52.968;5.816;2022-07-15T06:18:33;15.20;99.90
58529;DHT22;44322;52.968;5.816;2022-07-15T06:20:59;15.30;99.90
58529;DHT22;44322;52.968;5.816;2022-07-15T06:23:26;15.40;99.90
58529;DHT22;44322;52.968;5.816;2022-07-15T06:25:51;15.60;99.90
58529;DHT22;44322;52.968;5.816;2022-07-15T06:28:17;15.70;99.90
58529;DHT22;44322;52.968;5.816;2022-07-15T06:30:44;15.90;99.90
58529;DHT22;44322;52.968;5.816;2022-07-15T06:33:09;16.00;99.90
58529;DHT22;44322;52.968;5.816;2022-07-15T06:35:35;16.10;99.90
58529;DHT22;44322;52.968;5.816;2022-07-15T06:38:01;16.30;99.90
58529;DHT22;44322;52.968;5.816;2022-07-15T06:40:29;16.40;99.90
58529;DHT22;44322;52.968;5.816;2022-07-15T06:42:55;16.50;99.90
58529;DHT22;44322;52.968;5.816;2022-07-15T06:45:46;16.60;99.90
58529;DHT22;44322;52.968;5.816;2022-07-15T06:48:12;16.70;99.90
58529;DHT22;44322;52.968;5.816;2022-07-15T06:50:38;16.80;99.90
58529;DHT22;44322;52.968;5.816;2022-07-15T06:53:04;16.80;99.90
58529;DHT22;44322;52.968;5.816;2022-07-15T06:55:30;16.90;99.90
58529;DHT22;44322;52.968;5.816;2022-07-15T06:57:56;16.90;99.90
58529;DHT22;44322;52.968;5.816;2022-07-15T07:00:22;17.00;99.90
58529;DHT22;44322;52.968;5.816;2022-07-15T07:02:48;17.00;99.90
58529;DHT22;44322;52.968;5.816;2022-07-15T07:05:15;17.00;99.90
58529;DHT22;44322;52.968;5.816;2022-07-15T07:07:42;17.00;99.90
58529;DHT22;44322;52.968;5.816;2022-07-15T07:10:08;17.00;99.90
58529;DHT22;44322;52.968;5.816;2022-07-15T07:12:34;17.00;99.90
58529;DHT22;44322;52.968;5.816;2022-07-15T07:15:00;17.00;99.90
58529;DHT22;44322;52.968;5.816;2022-07-15T07:17:27;16.90;99.90
58529;DHT22;44322;52.968;5.816;2022-07-15T07:19:54;16.90;99.90
58529;DHT22;44322;52.968;5.816;2022-07-15T07:22:21;16.80;99.90
58529;DHT22;44322;52.968;5.816;2022-07-15T07:24:47;16.80;99.90
58529;DHT22;44322;52.968;5.816;2022-07-15T07:27:13;16.80;99.90
58529;DHT22;44322;52.968;5.816;2022-07-15T07:29:40;16.80;99.90
58529;DHT22;44322;52.968;5.816;2022-07-15T07:32:06;16.90;99.90
58529;DHT22;44322;52.968;5.816;2022-07-15T07:34:35;16.90;99.90
58529;DHT22;44322;52.968;5.816;2022-07-15T07:37:01;16.90;99.90
58529;DHT22;44322;52.968;5.816;2022-07-15T07:39:27;16.90;99.90
58529;DHT22;44322;52.968;5.816;2022-07-15T07:41:52;17.00;99.90
58529;DHT22;44322;52.968;5.816;2022-07-15T07:44:20;17.10;99.90
58529;DHT22;44322;52.968;5.816;2022-07-15T07:46:46;17.20;99.90
58529;DHT22;44322;52.968;5.816;2022-07-15T07:49:12;17.40;99.90
58529;DHT22;44322;52.968;5.816;2022-07-15T07:51:39;17.50;99.90
58529;DHT22;44322;52.968;5.816;2022-07-15T07:54:08;17.60;99.90
58529;DHT22;44322;52.968;5.816;2022-07-15T07:56:37;17.70;99.90
58529;DHT22;44322;52.968;5.816;2022-07-15T07:59:03;17.70;99.90
58529;DHT22;44322;52.968;5.816;2022-07-15T08:01:29;17.80;99.90
58529;DHT22;44322;52.968;5.816;2022-07-15T08:03:55;17.90;99.90
58529;DHT22;44322;52.968;5.816;2022-07-15T08:06:21;17.90;99.90
58529;DHT22;44322;52.968;5.816;2022-07-15T08:08:49;17.90;99.90
58529;DHT22;44322;52.968;5.816;2022-07-15T08:11:15;18.00;99.90
58529;DHT22;44322;52.968;5.816;2022-07-15T08:13:44;18.00;99.90
58529;DHT22;44322;52.968;5.816;2022-07-15T08:16:10;18.00;99.90
58529;DHT22;44322;52.968;5.816;2022-07-15T08:18:36;18.00;99.80
58529;DHT22;44322;52.968;5.816;2022-07-15T08:21:03;18.00;99.90
58529;DHT22;44322;52.968;5.816;2022-07-15T08:23:30;18.00;99.90
58529;DHT22;44322;52.968;5.816;2022-07-15T08:25:59;18.00;99.10
58529;DHT22;44322;52.968;5.816;2022-07-15T08:28:25;18.00;99.40
58529;DHT22;44322;52.968;5.816;2022-07-15T08:30:51;18.10;98.40
58529;DHT22;44322;52.968;5.816;2022-07-15T08:33:17;18.20;97.90
58529;DHT22;44322;52.968;5.816;2022-07-15T08:35:43;18.30;97.60
58529;DHT22;44322;52.968;5.816;2022-07-15T08:38:10;18.40;97.20
58529;DHT22;44322;52.968;5.816;2022-07-15T08:40:37;18.60;96.20
58529;DHT22;44322;52.968;5.816;2022-07-15T08:43:08;18.60;96.00
58529;DHT22;44322;52.968;5.816;2022-07-15T08:45:35;18.50;94.40
58529;DHT22;44322;52.968;5.816;2022-07-15T08:48:04;18.50;95.10
58529;DHT22;44322;52.968;5.816;2022-07-15T08:50:31;18.50;94.80
58529;DHT22;44322;52.968;5.816;2022-07-15T08:52:57;18.60;95.10
58529;DHT22;44322;52.968;5.816;2022-07-15T08:55:23;18.60;95.20
58529;DHT22;44322;52.968;5.816;2022-07-15T08:57:52;18.60;95.70
58529;DHT22;44322;52.968;5.816;2022-07-15T09:00:22;18.70;94.80
58529;DHT22;44322;52.968;5.816;2022-07-15T09:03:02;18.60;95.90
58529;DHT22;44322;52.968;5.816;2022-07-15T09:05:34;18.60;96.40
58529;DHT22;44322;52.968;5.816;2022-07-15T09:16:04;18.70;95.60
58529;DHT22;44322;52.968;5.816;2022-07-15T09:18:33;18.80;95.40
58529;DHT22;44322;52.968;5.816;2022-07-15T09:20:59;18.90;95.40
58529;DHT22;44322;52.968;5.816;2022-07-15T09:23:28;18.80;95.00
58529;DHT22;44322;52.968;5.816;2022-07-15T09:26:01;18.80;95.70
58529;DHT22;44322;52.968;5.816;2022-07-15T09:28:44;18.90;92.30
58529;DHT22;44322;52.968;5.816;2022-07-15T09:31:10;19.10;93.60
58529;DHT22;44322;52.968;5.816;2022-07-15T09:34:01;19.20;93.30
58529;DHT22;44322;52.968;5.816;2022-07-15T09:36:30;19.30;91.60
58529;DHT22;44322;52.968;5.816;2022-07-15T09:38:59;19.30;92.40
58529;DHT22;44322;52.968;5.816;2022-07-15T09:42:04;19.10;90.10
58529;DHT22;44322;52.968;5.816;2022-07-15T09:44:30;19.00;91.00
58529;DHT22;44322;52.968;5.816;2022-07-15T09:47:00;19.10;90.70
58529;DHT22;44322;52.968;5.816;2022-07-15T09:54:21;19.20;92.10
58529;DHT22;44322;52.968;5.816;2022-07-15T09:56:49;19.40;89.00
58529;DHT22;44322;52.968;5.816;2022-07-15T09:59:15;19.40;85.40
58529;DHT22;44322;52.968;5.816;2022-07-15T10:01:42;19.40;83.20
58529;DHT22;44322;52.968;5.816;2022-07-15T10:04:09;19.50;83.00
58529;DHT22;44322;52.968;5.816;2022-07-15T10:06:36;19.70;78.90
58529;DHT22;44322;52.968;5.816;2022-07-15T10:09:06;19.90;70.40
58529;DHT22;44322;52.968;5.816;2022-07-15T10:11:35;20.00;76.10
58529;DHT22;44322;52.968;5.816;2022-07-15T10:22:19;20.40;64.60
58529;DHT22;44322;52.968;5.816;2022-07-15T10:30:09;20.60;65.60
58529;DHT22;44322;52.968;5.816;2022-07-15T10:36:02;20.70;60.70
58529;DHT22;44322;52.968;5.816;2022-07-15T10:38:32;20.70;63.40
58529;DHT22;44322;52.968;5.816;2022-07-15T10:41:02;20.70;64.10
58529;DHT22;44322;52.968;5.816;2022-07-15T10:48:42;20.90;63.10
58529;DHT22;44322;52.968;5.816;2022-07-15T10:51:09;21.00;65.80
58529;DHT22;44322;52.968;5.816;2022-07-15T10:53:44;21.10;64.10
58529;DHT22;44322;52.968;5.816;2022-07-15T10:56:26;21.10;61.70
58529;DHT22;44322;52.968;5.816;2022-07-15T11:01:43;21.20;61.20
58529;DHT22;44322;52.968;5.816;2022-07-15T11:04:16;21.20;64.70
58529;DHT22;44322;52.968;5.816;2022-07-15T11:15:04;22.60;58.10
58529;DHT22;44322;52.968;5.816;2022-07-15T11:20:00;23.40;58.50
58529;DHT22;44322;52.968;5.816;2022-07-15T11:22:29;23.60;57.50
58529;DHT22;44322;52.968;5.816;2022-07-15T11:24:56;23.60;57.60
58529;DHT22;44322;52.968;5.816;2022-07-15T11:27:23;23.50;57.60
58529;DHT22;44322;52.968;5.816;2022-07-15T11:32:16;23.80;57.60
58529;DHT22;44322;52.968;5.816;2022-07-15T11:34:43;23.80;57.60
58529;DHT22;44322;52.968;5.816;2022-07-15T11:37:10;23.90;54.90
58529;DHT22;44322;52.968;5.816;2022-07-15T11:39:37;23.90;58.20
58529;DHT22;44322;52.968;5.816;2022-07-15T11:42:03;23.80;56.60
58529;DHT22;44322;52.968;5.816;2022-07-15T11:44:49;23.50;56.50
58529;DHT22;44322;52.968;5.816;2022-07-15T11:47:16;23.10;58.20
58529;DHT22;44322;52.968;5.816;2022-07-15T11:49:42;22.80;58.70
58529;DHT22;44322;52.968;5.816;2022-07-15T11:52:10;22.60;59.90
58529;DHT22;44322;52.968;5.816;2022-07-15T11:54:38;22.40;61.10
58529;DHT22;44322;52.968;5.816;2022-07-15T11:57:06;22.40;63.50
58529;DHT22;44322;52.968;5.816;2022-07-15T11:59:33;22.60;65.00
58529;DHT22;44322;52.968;5.816;2022-07-15T12:02:03;22.90;63.40
58529;DHT22;44322;52.968;5.816;2022-07-15T12:04:30;23.10;61.30
58529;DHT22;44322;52.968;5.816;2022-07-15T12:06:56;23.40;60.80
58529;DHT22;44322;52.968;5.816;2022-07-15T12:09:23;23.60;59.20
58529;DHT22;44322;52.968;5.816;2022-07-15T12:11:49;24.10;57.80
58529;DHT22;44322;52.968;5.816;2022-07-15T12:14:22;24.40;55.40
58529;DHT22;44322;52.968;5.816;2022-07-15T12:16:51;24.70;54.90
58529;DHT22;44322;52.968;5.816;2022-07-15T12:19:19;25.20;54.00
58529;DHT22;44322;52.968;5.816;2022-07-15T12:21:48;25.70;53.10
58529;DHT22;44322;52.968;5.816;2022-07-15T12:24:16;26.00;51.90
58529;DHT22;44322;52.968;5.816;2022-07-15T12:26:56;26.10;50.80
58529;DHT22;44322;52.968;5.816;2022-07-15T12:29:28;26.00;49.70
58529;DHT22;44322;52.968;5.816;2022-07-15T12:32:00;26.00;50.50
58529;DHT22;44322;52.968;5.816;2022-07-15T12:42:39;24.40;52.30
58529;DHT22;44322;52.968;5.816;2022-07-15T12:45:26;24.40;52.60
58529;DHT22;44322;52.968;5.816;2022-07-15T12:50:25;24.80;51.50
58529;DHT22;44322;52.968;5.816;2022-07-15T12:52:54;24.50;51.20
58529;DHT22;44322;52.968;5.816;2022-07-15T12:55:22;24.40;51.70
58529;DHT22;44322;52.968;5.816;2022-07-15T12:57:48;24.30;52.10
58529;DHT22;44322;52.968;5.816;2022-07-15T13:00:23;24.30;52.30
58529;DHT22;44322;52.968;5.816;2022-07-15T13:05:39;24.30;52.30
58529;DHT22;44322;52.968;5.816;2022-07-15T13:08:07;24.40;53.00
58529;DHT22;44322;52.968;5.816;2022-07-15T13:10:33;24.70;52.50
58529;DHT22;44322;52.968;5.816;2022-07-15T13:13:00;25.00;51.50
58529;DHT22;44322;52.968;5.816;2022-07-15T13:19:45;25.50;49.70
58529;DHT22;44322;52.968;5.816;2022-07-15T13:22:11;25.40;50.00
58529;DHT22;44322;52.968;5.816;2022-07-15T13:24:37;25.30;49.60
58529;DHT22;44322;52.968;5.816;2022-07-15T13:27:04;25.20;49.40
58529;DHT22;44322;52.968;5.816;2022-07-15T13:29:29;25.30;50.20
58529;DHT22;44322;52.968;5.816;2022-07-15T13:31:55;25.40;49.90
58529;DHT22;44322;52.968;5.816;2022-07-15T13:34:21;25.60;49.60
58529;DHT22;44322;52.968;5.816;2022-07-15T13:36:47;25.90;49.80
58529;DHT22;44322;52.968;5.816;2022-07-15T13:39:13;26.20;49.20
58529;DHT22;44322;52.968;5.816;2022-07-15T13:41:38;26.40;49.20
58529;DHT22;44322;52.968;5.816;2022-07-15T13:44:04;26.50;49.30
58529;DHT22;44322;52.968;5.816;2022-07-15T13:46:30;26.40;49.40
58529;DHT22;44322;52.968;5.816;2022-07-15T13:48:56;26.20;49.50
58529;DHT22;44322;52.968;5.816;2022-07-15T13:51:22;25.80;51.20
58529;DHT22;44322;52.968;5.816;2022-07-15T13:53:52;25.40;51.30
58529;DHT22;44322;52.968;5.816;2022-07-15T13:56:27;25.40;52.40
58529;DHT22;44322;52.968;5.816;2022-07-15T13:58:54;25.50;52.10
58529;DHT22;44322;52.968;5.816;2022-07-15T14:01:25;25.30;52.50
58529;DHT22;44322;52.968;5.816;2022-07-15T14:03:53;25.00;53.30
58529;DHT22;44322;52.968;5.816;2022-07-15T14:06:19;24.80;54.10
58529;DHT22;44322;52.968;5.816;2022-07-15T14:08:45;24.40;53.60
58529;DHT22;44322;52.968;5.816;2022-07-15T14:11:11;24.10;55.80
58529;DHT22;44322;52.968;5.816;2022-07-15T14:13:38;23.90;58.00
58529;DHT22;44322;52.968;5.816;2022-07-15T14:16:04;24.00;58.90
58529;DHT22;44322;52.968;5.816;2022-07-15T14:18:30;24.00;58.90
58529;DHT22;44322;52.968;5.816;2022-07-15T14:21:09;24.20;59.60
58529;DHT22;44322;52.968;5.816;2022-07-15T14:23:35;24.30;58.30
58529;DHT22;44322;52.968;5.816;2022-07-15T14:26:01;24.10;57.80
58529;DHT22;44322;52.968;5.816;2022-07-15T14:28:27;24.00;59.20
58529;DHT22;44322;52.968;5.816;2022-07-15T14:30:53;23.90;59.50
58529;DHT22;44322;52.968;5.816;2022-07-15T14:33:19;23.90;59.60
58529;DHT22;44322;52.968;5.816;2022-07-15T14:35:46;23.70;59.20
58529;DHT22;44322;52.968;5.816;2022-07-15T14:38:12;23.50;60.90
58529;DHT22;44322;52.968;5.816;2022-07-15T14:40:37;23.20;63.50
58529;DHT22;44322;52.968;5.816;2022-07-15T14:43:03;23.00;65.80
58529;DHT22;44322;52.968;5.816;2022-07-15T14:45:29;22.80;68.30
58529;DHT22;44322;52.968;5.816;2022-07-15T14:47:55;22.70;72.40
58529;DHT22;44322;52.968;5.816;2022-07-15T14:50:21;22.60;75.50
58529;DHT22;44322;52.968;5.816;2022-07-15T14:52:47;22.70;77.30
58529;DHT22;44322;52.968;5.816;2022-07-15T14:55:13;22.70;73.70
58529;DHT22;44322;52.968;5.816;2022-07-15T14:57:39;22.50;75.20
58529;DHT22;44322;52.968;5.816;2022-07-15T15:00:05;22.50;77.60
58529;DHT22;44322;52.968;5.816;2022-07-15T15:02:31;22.50;75.60
58529;DHT22;44322;52.968;5.816;2022-07-15T15:04:57;22.50;75.60
58529;DHT22;44322;52.968;5.816;2022-07-15T15:07:24;22.50;77.00
58529;DHT22;44322;52.968;5.816;2022-07-15T15:09:49;22.50;79.20
58529;DHT22;44322;52.968;5.816;2022-07-15T15:12:15;22.50;76.80
58529;DHT22;44322;52.968;5.816;2022-07-15T15:14:41;22.40;75.90
58529;DHT22;44322;52.968;5.816;2022-07-15T15:17:07;22.30;77.90
58529;DHT22;44322;52.968;5.816;2022-07-15T15:19:34;22.20;80.20
58529;DHT22;44322;52.968;5.816;2022-07-15T15:22:00;22.20;80.40
58529;DHT22;44322;52.968;5.816;2022-07-15T15:24:26;22.30;79.70
58529;DHT22;44322;52.968;5.816;2022-07-15T15:26:52;22.30;79.90
58529;DHT22;44322;52.968;5.816;2022-07-15T15:29:19;22.40;78.30
58529;DHT22;44322;52.968;5.816;2022-07-15T15:31:45;22.40;78.20
58529;DHT22;44322;52.968;5.816;2022-07-15T15:34:11;22.30;78.90
58529;DHT22;44322;52.968;5.816;2022-07-15T15:36:36;22.30;79.90
58529;DHT22;44322;52.968;5.816;2022-07-15T15:39:03;22.30;81.10
58529;DHT22;44322;52.968;5.816;2022-07-15T15:41:29;22.20;80.90
58529;DHT22;44322;52.968;5.816;2022-07-15T15:43:54;22.00;82.50
58529;DHT22;44322;52.968;5.816;2022-07-15T15:46:20;21.90;82.40
58529;DHT22;44322;52.968;5.816;2022-07-15T15:48:46;21.90;84.30
58529;DHT22;44322;52.968;5.816;2022-07-15T15:51:12;21.90;83.20
58529;DHT22;44322;52.968;5.816;2022-07-15T15:53:38;21.80;84.00
58529;DHT22;44322;52.968;5.816;2022-07-15T15:56:04;21.80;86.00
58529;DHT22;44322;52.968;5.816;2022-07-15T15:58:29;21.80;86.90
58529;DHT22;44322;52.968;5.816;2022-07-15T16:00:55;21.80;85.90
58529;DHT22;44322;52.968;5.816;2022-07-15T16:03:21;21.80;86.30
58529;DHT22;44322;52.968;5.816;2022-07-15T16:05:48;21.80;87.40
58529;DHT22;44322;52.968;5.816;2022-07-15T16:08:14;21.90;88.40
58529;DHT22;44322;52.968;5.816;2022-07-15T16:10:40;22.10;85.20
58529;DHT22;44322;52.968;5.816;2022-07-15T16:13:06;22.10;82.80
58529;DHT22;44322;52.968;5.816;2022-07-15T16:15:32;22.10;84.80
58529;DHT22;44322;52.968;5.816;2022-07-15T16:17:58;22.10;86.30
58529;DHT22;44322;52.968;5.816;2022-07-15T16:20:24;22.10;83.30
58529;DHT22;44322;52.968;5.816;2022-07-15T16:22:50;22.00;81.70
58529;DHT22;44322;52.968;5.816;2022-07-15T16:25:22;21.90;82.40
58529;DHT22;44322;52.968;5.816;2022-07-15T16:27:49;21.80;84.40
58529;DHT22;44322;52.968;5.816;2022-07-15T16:30:15;21.80;88.90
58529;DHT22;44322;52.968;5.816;2022-07-15T16:32:40;21.70;87.80
58529;DHT22;44322;52.968;5.816;2022-07-15T16:35:06;21.60;90.00
58529;DHT22;44322;52.968;5.816;2022-07-15T16:37:32;21.50;91.00
58529;DHT22;44322;52.968;5.816;2022-07-15T16:39:58;21.40;92.60
58529;DHT22;44322;52.968;5.816;2022-07-15T16:42:24;21.30;94.20